createdAt,value
2023-02-12T00:03:53.097Z,100235.28
2023-02-12T00:07:55.369Z,100239.66
2023-02-12T00:11:57.511Z,100221.66
2023-02-12T00:15:59.935Z,100222.63
2023-02-12T00:20:03.022Z,100232.81
2023-02-12T00:24:05.512Z,100226.25
2023-02-12T00:28:07.872Z,100241.19
2023-02-12T00:32:10.162Z,100232.81
2023-02-12T00:36:16.810Z,100238.72
2023-02-12T00:40:19.883Z,100244.63
2023-02-12T00:44:22.732Z,100237.22
2023-02-12T00:48:24.961Z,100231.44
2023-02-12T00:52:27.260Z,100233.34
2023-02-12T00:56:29.593Z,100234.59
2023-02-12T01:00:32.158Z,100231.56
2023-02-12T01:04:34.665Z,100230.06
2023-02-12T01:08:37.031Z,100241.31
2023-02-12T01:12:40.677Z,100236.53
2023-02-12T01:16:43.878Z,100237.97
2023-02-12T01:20:47.172Z,100238.19
2023-02-12T01:24:50.834Z,100229.63
2023-02-12T01:28:55.482Z,100217.69
2023-02-12T01:32:57.912Z,100216.47
2023-02-12T01:37:00.326Z,100214.31
2023-02-12T01:41:03.988Z,100207.31
2023-02-12T01:45:14.394Z,100211.13
2023-02-12T01:49:23.116Z,100211.66
2023-02-12T01:53:27.112Z,100209.78
2023-02-12T01:57:33.013Z,100206.19
2023-02-12T02:01:36.634Z,100197.81
2023-02-12T02:06:02.900Z,100196.97
2023-02-12T02:10:06.147Z,100194.66
2023-02-12T02:14:27.054Z,100193.97
2023-02-12T02:18:39.767Z,100190.81
2023-02-12T02:22:42.040Z,100186.16
2023-02-12T02:27:03.675Z,100181.84
2023-02-12T02:31:17.915Z,100175.44
2023-02-12T02:35:36.807Z,100185.88
2023-02-12T02:39:39.184Z,100181.75
2023-02-12T02:43:44.571Z,100178.88
2023-02-12T02:47:52.482Z,100169.00
2023-02-12T02:52:06.983Z,100171.31
2023-02-12T02:56:12.564Z,100180.22
2023-02-12T03:00:18.747Z,100172.97
2023-02-12T03:04:27.144Z,100171.16
2023-02-12T03:08:36.765Z,100166.19
2023-02-12T03:12:48.245Z,100164.28
2023-02-12T03:16:57.091Z,100169.53
2023-02-12T03:21:07.435Z,100168.56
2023-02-12T03:25:15.361Z,100175.56
2023-02-12T03:29:17.953Z,100165.44
2023-02-12T03:33:23.192Z,100161.88
2023-02-12T03:37:29.658Z,100146.91
2023-02-12T03:41:36.165Z,100152.94
2023-02-12T03:45:42.091Z,100153.47
2023-02-12T03:49:51.914Z,100161.66
2023-02-12T03:53:55.355Z,100163.94
2023-02-12T03:58:01.011Z,100159.41
2023-02-12T04:02:03.565Z,100158.06
2023-02-12T04:06:06.061Z,100154.44
2023-02-12T04:10:08.566Z,100158.34
2023-02-12T04:14:20.663Z,100157.59
2023-02-12T04:18:43.950Z,100151.28
2023-02-12T04:22:52.669Z,100152.13
2023-02-12T04:26:57.711Z,100153.19
2023-02-12T04:31:04.070Z,100147.88
2023-02-12T04:35:06.565Z,100153.09
2023-02-12T04:39:11.512Z,100131.69
2023-02-12T04:43:13.965Z,100139.09
2023-02-12T04:47:16.770Z,100153.78
2023-02-12T04:51:18.996Z,100159.94
2023-02-12T04:55:21.513Z,100153.84
2023-02-12T04:59:23.712Z,100153.44
2023-02-12T05:03:27.611Z,100155.03
2023-02-12T05:07:30.053Z,100147.34
2023-02-12T05:11:32.537Z,100145.84
2023-02-12T05:15:34.759Z,100151.81
2023-02-12T05:19:37.100Z,100150.53
2023-02-12T05:23:40.081Z,100139.47
2023-02-12T05:27:42.328Z,100143.75
2023-02-12T05:31:45.115Z,100146.38
2023-02-12T05:35:47.458Z,100156.00
2023-02-12T05:39:50.724Z,100157.78
2023-02-12T05:43:53.654Z,100155.06
2023-02-12T05:47:56.356Z,100152.72
2023-02-12T05:51:58.477Z,100159.88
2023-02-12T05:56:12.737Z,100145.22
2023-02-12T06:00:15.248Z,100151.13
2023-02-12T06:04:23.894Z,100154.50
2023-02-12T06:08:26.535Z,100156.28
2023-02-12T06:12:28.723Z,100166.44
2023-02-12T06:16:31.402Z,100151.63
2023-02-12T06:20:33.707Z,100152.03
2023-02-12T06:24:37.383Z,100161.34
2023-02-12T06:28:40.442Z,100165.38
2023-02-12T06:32:43.264Z,100172.09
2023-02-12T06:36:46.631Z,100177.56
2023-02-12T06:40:49.722Z,100177.88
2023-02-12T06:44:53.151Z,100173.38
2023-02-12T06:48:56.322Z,100173.47
2023-02-12T06:52:58.923Z,100169.91
2023-02-12T06:57:01.104Z,100183.50
2023-02-12T07:01:15.182Z,100189.44
2023-02-12T07:05:17.376Z,100206.03
2023-02-12T07:09:19.690Z,100214.97
2023-02-12T07:13:21.795Z,100208.13
2023-02-12T07:17:23.785Z,100207.84
2023-02-12T07:21:25.908Z,100202.88
2023-02-12T07:25:27.900Z,100197.09
2023-02-12T07:29:29.999Z,100200.75
2023-02-12T07:33:31.997Z,100205.53
2023-02-12T07:37:34.270Z,100207.16
2023-02-12T07:41:36.935Z,100196.38
2023-02-12T07:45:39.001Z,100199.19
2023-02-12T07:49:41.014Z,100194.75
2023-02-12T07:53:43.344Z,100189.41
2023-02-12T07:57:45.484Z,100201.81
2023-02-12T08:01:49.336Z,100218.97
2023-02-12T08:05:51.437Z,100217.63
2023-02-12T08:09:53.662Z,100209.78
2023-02-12T08:13:55.753Z,100202.81
2023-02-12T08:17:57.717Z,100207.88
2023-02-12T08:21:59.797Z,100208.13
2023-02-12T08:26:21.482Z,100213.97
2023-02-12T08:30:23.817Z,100219.50
2023-02-12T08:34:26.939Z,100212.38
2023-02-12T08:38:29.055Z,100216.22
2023-02-12T08:42:31.053Z,100213.63
2023-02-12T08:46:34.244Z,100211.88
2023-02-12T08:50:36.404Z,100205.53
2023-02-12T08:54:38.988Z,100199.63
2023-02-12T08:58:41.597Z,100210.78
2023-02-12T09:02:43.709Z,100209.78
2023-02-12T09:06:46.488Z,100204.53
2023-02-12T09:10:48.832Z,100202.00
2023-02-12T09:14:52.061Z,100196.03
2023-02-12T09:18:54.729Z,100197.25
2023-02-12T09:22:58.048Z,100197.09
2023-02-12T09:27:00.256Z,100187.25
2023-02-12T09:31:09.808Z,100177.91
2023-02-12T09:35:12.943Z,100182.59
2023-02-12T09:39:15.054Z,100189.38
2023-02-12T09:43:18.624Z,100191.66
2023-02-12T09:47:27.957Z,100186.88
2023-02-12T09:51:31.510Z,100186.19
2023-02-12T09:55:35.011Z,100184.44
2023-02-12T09:59:52.892Z,100183.88
2023-02-12T10:03:55.631Z,100187.22
2023-02-12T10:08:16.591Z,100178.06
2023-02-12T10:12:54.312Z,100184.00
2023-02-12T10:17:02.289Z,100188.38
2023-02-12T10:21:11.989Z,100177.94
2023-02-12T10:25:23.320Z,100177.06
2023-02-12T10:29:27.344Z,100166.28
2023-02-12T10:33:37.581Z,100149.78
2023-02-12T10:37:45.730Z,100142.53
2023-02-12T10:41:54.678Z,100141.16
2023-02-12T10:45:57.491Z,100145.31
2023-02-12T10:50:01.303Z,100145.91
2023-02-12T10:54:22.110Z,100135.63
2023-02-12T10:58:27.173Z,100127.50
2023-02-12T11:02:33.189Z,100116.88
2023-02-12T11:06:35.259Z,100113.84
2023-02-12T11:10:41.699Z,100103.81
2023-02-12T11:14:48.891Z,100100.50
2023-02-12T11:18:58.085Z,100097.66
2023-02-12T11:23:02.043Z,100092.66
2023-02-12T11:27:16.387Z,100086.09
2023-02-12T11:31:23.344Z,100080.47
2023-02-12T11:35:27.269Z,100081.97
2023-02-12T11:39:29.608Z,100072.97
2023-02-12T11:43:34.492Z,100069.59
2023-02-12T11:47:40.493Z,100064.69
2023-02-12T11:51:47.064Z,100059.16
2023-02-12T11:55:57.173Z,100051.78
2023-02-12T12:00:01.414Z,100058.59
2023-02-12T12:04:18.357Z,100055.03
2023-02-12T12:08:26.195Z,100062.63
2023-02-12T12:12:44.319Z,100045.28
2023-02-12T12:17:13.212Z,100041.84
2023-02-12T12:21:15.241Z,100026.13
2023-02-12T12:25:28.341Z,100020.03
2023-02-12T12:29:41.376Z,100015.09
2023-02-12T12:33:43.436Z,100015.09
2023-02-12T12:37:53.746Z,100010.81
2023-02-12T12:42:14.350Z,100006.38
2023-02-12T12:46:31.909Z,100010.44
2023-02-12T12:51:06.530Z,100008.09
2023-02-12T12:55:27.336Z,100010.69
2023-02-12T12:59:35.720Z,100019.13
2023-02-12T13:03:52.698Z,100006.66
2023-02-12T13:08:18.871Z,100005.00
2023-02-12T13:12:39.963Z,100001.66
2023-02-12T13:16:56.425Z,99990.00
2023-02-12T13:21:04.789Z,99984.16
2023-02-12T13:25:16.323Z,99981.41
2023-02-12T13:29:25.318Z,99971.88
2023-02-12T13:33:47.470Z,99975.19
2023-02-12T13:37:52.614Z,99974.84
2023-02-12T13:42:00.129Z,99968.13
2023-02-12T13:46:12.162Z,99972.19
2023-02-12T13:50:33.447Z,99974.53
2023-02-12T13:54:47.692Z,99976.88
2023-02-12T13:58:53.936Z,99980.44
2023-02-12T14:02:56.040Z,99966.19
2023-02-12T14:07:01.327Z,99965.72
2023-02-12T14:11:12.328Z,99963.44
2023-02-12T14:15:28.715Z,99958.75
2023-02-12T14:20:03.435Z,99954.91
2023-02-12T14:24:32.037Z,99954.50
2023-02-12T14:28:37.154Z,99945.13
2023-02-12T14:32:45.430Z,99944.56
2023-02-12T14:36:49.301Z,99948.59
2023-02-12T14:40:52.633Z,99956.38
2023-02-12T14:44:58.407Z,99958.63
2023-02-12T14:49:06.127Z,99965.84
2023-02-12T14:53:23.646Z,99966.25
2023-02-12T14:57:30.395Z,99962.53
2023-02-12T15:01:34.699Z,99971.53
2023-02-12T15:05:42.984Z,99968.94
2023-02-12T15:09:52.370Z,99972.59
2023-02-12T15:14:01.708Z,99978.75
2023-02-12T15:18:08.974Z,99977.47
2023-02-12T15:22:38.368Z,99974.19
2023-02-12T15:26:42.241Z,99979.75
2023-02-12T15:30:44.488Z,99975.19
2023-02-12T15:34:49.428Z,99977.53
2023-02-12T15:38:53.541Z,99995.34
2023-02-12T15:42:57.304Z,99993.06
2023-02-12T15:47:19.542Z,100000.09
2023-02-12T15:51:35.412Z,100001.56
2023-02-12T15:55:41.010Z,100006.41
2023-02-12T15:59:43.361Z,100003.78
2023-02-12T16:03:49.314Z,100008.13
2023-02-12T16:07:51.556Z,100012.34
2023-02-12T16:11:53.993Z,100015.50
2023-02-12T16:16:16.418Z,100014.97
2023-02-12T16:20:19.259Z,100028.13
2023-02-12T16:24:33.585Z,100031.38
2023-02-12T16:28:37.041Z,100041.25
2023-02-12T16:32:40.385Z,100056.53
2023-02-12T16:36:46.692Z,100066.16
2023-02-12T16:41:15.064Z,100072.97
2023-02-12T16:45:36.462Z,100078.41
2023-02-12T16:49:38.755Z,100089.09
2023-02-12T16:53:43.931Z,100098.22
2023-02-12T16:57:46.455Z,100103.56
2023-02-12T17:02:02.598Z,100108.00
2023-02-12T17:06:04.815Z,100120.31
2023-02-12T17:10:07.221Z,100118.88
2023-02-12T17:14:14.207Z,100113.78
2023-02-12T17:18:18.114Z,100131.22
2023-02-12T17:22:23.350Z,100125.47
2023-02-12T17:26:26.776Z,100126.53
2023-02-12T17:30:29.985Z,100143.63
2023-02-12T17:34:36.790Z,100161.16
2023-02-12T17:38:48.823Z,100157.94
2023-02-12T17:42:50.961Z,100155.22
2023-02-12T17:46:53.391Z,100154.69
2023-02-12T17:50:58.053Z,100161.50
2023-02-12T17:55:02.039Z,100167.59
2023-02-12T17:59:04.333Z,100175.41
2023-02-12T18:03:06.475Z,100176.97
2023-02-12T18:07:09.327Z,100180.50
2023-02-12T18:11:11.604Z,100196.84
2023-02-12T18:15:14.426Z,100194.41
2023-02-12T18:19:16.485Z,100202.56
2023-02-12T18:23:18.582Z,100197.06
2023-02-12T18:27:20.769Z,100207.44
2023-02-12T18:31:23.205Z,100207.69
2023-02-12T18:35:25.379Z,100209.44
2023-02-12T18:39:28.626Z,100210.72
2023-02-12T18:43:34.353Z,100212.13
2023-02-12T18:47:36.797Z,100210.31
2023-02-12T18:51:41.181Z,100208.31
2023-02-12T18:55:43.978Z,100216.63
2023-02-12T18:59:46.362Z,100222.56
2023-02-12T19:03:49.747Z,100224.19
2023-02-12T19:07:51.894Z,100219.31
2023-02-12T19:11:55.265Z,100211.91
2023-02-12T19:15:57.731Z,100215.56
2023-02-12T19:20:00.022Z,100211.09
2023-02-12T19:24:03.283Z,100218.19
2023-02-12T19:28:05.591Z,100215.38
2023-02-12T19:32:07.885Z,100221.09
2023-02-12T19:36:11.698Z,100227.41
2023-02-12T19:40:14.076Z,100231.94
2023-02-12T19:44:19.073Z,100235.19
2023-02-12T19:48:21.338Z,100244.63
2023-02-12T19:52:23.766Z,100251.13
2023-02-12T19:56:26.038Z,100249.50
2023-02-12T20:00:28.132Z,100252.75
2023-02-12T20:04:31.214Z,100255.81
2023-02-12T20:08:33.355Z,100260.50
2023-02-12T20:12:40.231Z,100268.19
2023-02-12T20:16:44.013Z,100261.19
2023-02-12T20:20:46.192Z,100265.88
2023-02-12T20:24:48.678Z,100261.59
2023-02-12T20:28:51.375Z,100264.22
2023-02-12T20:32:53.692Z,100265.25
2023-02-12T20:36:55.971Z,100266.75
2023-02-12T20:41:05.319Z,100272.72
2023-02-12T20:45:07.832Z,100285.22
2023-02-12T20:49:12.247Z,100293.41
2023-02-12T20:53:15.151Z,100290.78
2023-02-12T20:57:17.359Z,100289.28
2023-02-12T21:01:24.826Z,100298.59
2023-02-12T21:05:27.151Z,100301.69
2023-02-12T21:09:29.294Z,100304.47
2023-02-12T21:13:31.291Z,100286.41
2023-02-12T21:17:34.761Z,100292.19
2023-02-12T21:21:39.962Z,100305.44
2023-02-12T21:25:42.343Z,100306.88
2023-02-12T21:29:45.511Z,100297.19
2023-02-12T21:33:48.717Z,100301.41
2023-02-12T21:37:50.757Z,100304.31
2023-02-12T21:41:54.420Z,100290.25
2023-02-12T21:45:56.602Z,100301.25
2023-02-12T21:49:58.639Z,100306.25
2023-02-12T21:54:01.883Z,100306.22
2023-02-12T21:58:03.960Z,100301.00
2023-02-12T22:02:06.931Z,100310.16
2023-02-12T22:06:09.259Z,100309.75
2023-02-12T22:10:11.378Z,100297.06
2023-02-12T22:14:14.605Z,100321.28
2023-02-12T22:18:16.558Z,100321.28
2023-02-12T22:22:18.605Z,100337.38
2023-02-12T22:26:22.296Z,100335.19
2023-02-12T22:30:24.390Z,100340.00
2023-02-12T22:34:26.557Z,100340.50
2023-02-12T22:38:28.587Z,100330.59
2023-02-12T22:42:31.317Z,100342.31
2023-02-12T22:46:35.290Z,100348.63
2023-02-12T22:50:39.058Z,100348.50
2023-02-12T22:54:41.357Z,100350.53
2023-02-12T22:58:43.421Z,100356.38
2023-02-12T23:02:45.448Z,100364.75
2023-02-12T23:06:47.523Z,100362.28
2023-02-12T23:10:49.658Z,100365.56
2023-02-12T23:14:52.907Z,100366.91
2023-02-12T23:18:59.242Z,100357.25
2023-02-12T23:23:03.465Z,100364.56
2023-02-12T23:27:05.918Z,100374.84
2023-02-12T23:31:07.961Z,100366.84
2023-02-12T23:35:12.953Z,100359.59
2023-02-12T23:39:15.130Z,100358.28
2023-02-12T23:43:17.109Z,100359.66
2023-02-12T23:47:19.321Z,100354.09
2023-02-12T23:51:21.520Z,100360.53
2023-02-12T23:55:23.717Z,100354.34
2023-02-12T23:59:26.060Z,100355.19
